Time;durP1;ratioP1;P1;durP2;ratioP2;P2;SDS_P1;SDS_P2;PMS_P1;PMS_P2;Temp;Humidity;BMP_temperature;BMP_pressure;BME280_temperature;BME280_humidity;BME280_pressure;Samples;Min_cycle;Max_cycle;Signal;HPM_P1;HPM_P2
2022/12/23 00:01:32;;;;;;;5.33;3.63;;;1.70;99.90;;;;;;5070095;28;20546;-48
2022/12/23 00:03:59;;;;;;;5.73;3.80;;;1.70;99.90;;;;;;5070631;28;20440;-48
2022/12/23 00:06:27;;;;;;;4.87;4.47;;;1.80;99.90;;;;;;5069890;28;20468;-50
2022/12/23 00:08:56;;;;;;;4.63;3.50;;;2.10;99.90;;;;;;5071046;28;20441;-48
2022/12/23 00:11:26;;;;;;;2.33;2.10;;;2.30;99.90;;;;;;5072768;28;20518;-49
2022/12/23 00:16:37;;;;;;;7.53;6.73;;;2.50;99.90;;;;;;5072416;28;20792;-50
2022/12/23 00:19:04;;;;;;;9.90;8.50;;;2.40;99.90;;;;;;5072492;28;20953;-48
2022/12/23 00:21:31;;;;;;;8.60;7.87;;;2.00;99.90;;;;;;5072964;28;20977;-48
2022/12/23 00:23:58;;;;;;;8.17;7.33;;;1.70;99.90;;;;;;5074021;28;20494;-48
2022/12/23 00:26:28;;;;;;;6.43;5.10;;;1.80;99.90;;;;;;5073530;28;20584;-48
2022/12/23 00:28:57;;;;;;;4.17;3.77;;;2.00;99.90;;;;;;5073040;28;20519;-50
2022/12/23 00:31:24;;;;;;;7.23;6.20;;;2.10;99.90;;;;;;5072194;28;20487;-50
2022/12/23 00:33:53;;;;;;;9.43;7.20;;;1.90;99.90;;;;;;5072462;28;20962;-48
2022/12/23 00:36:21;;;;;;;6.80;5.53;;;1.50;99.90;;;;;;5071728;28;20926;-48
2022/12/23 00:44:20;;;;;;;6.20;4.30;;;2.10;99.90;;;;;;5052844;28;20426;-48
2022/12/23 00:46:47;;;;;;;5.57;4.53;;;2.10;99.90;;;;;;5065071;28;20513;-50
2022/12/23 00:51:59;;;;;;;5.60;4.57;;;2.20;99.90;;;;;;5072854;28;21001;-49
2022/12/23 00:54:27;;;;;;;6.80;6.10;;;2.20;99.90;;;;;;5071549;28;20897;-49
2022/12/23 00:56:55;;;;;;;4.47;4.07;;;2.20;99.90;;;;;;5071841;28;20503;-50
2022/12/23 00:59:22;;;;;;;5.73;2.67;;;2.20;99.90;;;;;;5071389;28;20527;-50
2022/12/23 01:07:18;;;;;;;5.77;5.27;;;2.20;99.90;;;;;;5071501;28;20980;-48
2022/12/23 01:09:45;;;;;;;6.87;5.77;;;2.20;99.90;;;;;;5071762;28;20471;-50
2022/12/23 01:12:13;;;;;;;5.63;5.10;;;2.00;99.90;;;;;;5072084;28;20556;-48
2022/12/23 01:14:41;;;;;;;6.93;4.90;;;1.80;99.90;;;;;;5072953;28;20945;-48
2022/12/23 01:17:08;;;;;;;7.13;4.60;;;2.00;99.90;;;;;;5072440;28;20469;-48
2022/12/23 01:19:35;;;;;;;5.90;4.80;;;2.20;99.90;;;;;;5051964;28;20818;-51
2022/12/23 01:22:02;;;;;;;5.90;5.10;;;2.20;99.90;;;;;;5071733;28;20902;-49
2022/12/23 01:24:30;;;;;;;6.33;4.23;;;2.00;99.90;;;;;;5072653;28;20884;-48
2022/12/23 01:26:57;;;;;;;8.40;5.23;;;2.00;99.90;;;;;;5072347;28;20536;-49
2022/12/23 01:29:25;;;;;;;5.97;3.80;;;2.10;99.90;;;;;;5070936;28;20529;-49
2022/12/23 01:31:52;;;;;;;3.80;3.40;;;2.30;99.90;;;;;;5071203;28;20538;-48
2022/12/23 01:34:20;;;;;;;4.00;3.40;;;2.30;99.90;;;;;;5070826;28;20504;-49
2022/12/23 01:36:46;;;;;;;6.27;4.13;;;2.40;99.90;;;;;;5071121;28;20524;-50
2022/12/23 01:39:13;;;;;;;5.77;5.13;;;2.50;99.90;;;;;;5071182;28;20550;-48
2022/12/23 01:44:56;;;;;;;4.27;3.60;;;2.30;99.90;;;;;;5072066;28;20419;-51
2022/12/23 01:47:29;;;;;;;5.57;4.23;;;2.50;99.90;;;;;;5072013;28;20636;-49
2022/12/23 01:50:00;;;;;;;3.97;3.57;;;2.50;99.90;;;;;;5072179;28;20524;-48
2022/12/23 01:52:28;;;;;;;7.57;5.67;;;2.40;99.90;;;;;;5071979;28;20468;-50
2022/12/23 01:54:56;;;;;;;4.53;4.03;;;2.40;99.90;;;;;;5071611;28;20569;-48
2022/12/23 01:57:24;;;;;;;3.70;3.40;;;2.50;99.90;;;;;;5071778;28;20469;-48
2022/12/23 02:05:24;;;;;;;2.10;1.57;;;2.70;99.90;;;;;;5070576;28;20823;-49
2022/12/23 02:10:52;;;;;;;4.77;4.20;;;2.90;99.90;;;;;;5067512;28;20461;-49
2022/12/23 02:13:27;;;;;;;6.00;4.30;;;2.20;99.90;;;;;;5068176;28;20563;-48
2022/12/23 02:16:17;;;;;;;5.67;4.93;;;2.00;99.90;;;;;;5070728;28;20483;-48
2022/12/23 02:18:59;;;;;;;4.70;4.20;;;2.00;99.90;;;;;;5071654;28;20433;-49
2022/12/23 02:21:46;;;;;;;4.80;3.77;;;2.00;99.90;;;;;;5071788;28;20513;-50
2022/12/23 02:25:01;;;;;;;4.27;3.87;;;2.20;99.90;;;;;;5071821;28;20532;-49
2022/12/23 02:27:31;;;;;;;4.93;4.43;;;2.40;99.90;;;;;;5034748;28;20516;-48
2022/12/23 02:30:24;;;;;;;4.70;4.20;;;2.40;99.90;;;;;;5070394;28;20507;-49
2022/12/23 02:33:26;;;;;;;5.20;3.90;;;2.50;99.90;;;;;;5069901;28;20445;-45
2022/12/23 02:35:59;;;;;;;5.20;4.27;;;2.30;99.90;;;;;;5042578;28;20528;-50
2022/12/23 02:38:31;;;;;;;7.20;5.20;;;2.30;99.90;;;;;;5062667;28;21005;-50
2022/12/23 02:41:06;;;;;;;5.80;5.00;;;2.40;99.90;;;;;;5070850;28;20945;-53
2022/12/23 02:43:41;;;;;;;4.90;3.80;;;2.40;99.90;;;;;;5066700;28;20464;-48
2022/12/23 02:46:13;;;;;;;4.50;3.20;;;2.40;99.90;;;;;;5071317;28;20531;-50
2022/12/23 02:48:48;;;;;;;4.10;2.53;;;2.50;99.90;;;;;;5071118;28;20441;-49
2022/12/23 02:51:16;;;;;;;2.47;2.27;;;2.60;99.90;;;;;;5071265;28;20562;-49
2022/12/23 02:53:47;;;;;;;3.03;2.63;;;2.60;99.90;;;;;;5070978;28;20500;-49
2022/12/23 02:56:17;;;;;;;5.40;4.00;;;2.60;99.90;;;;;;5071497;28;20528;-49
2022/12/23 02:58:49;;;;;;;4.73;4.13;;;2.50;99.90;;;;;;5071111;28;20519;-49
2022/12/23 03:01:17;;;;;;;4.43;3.40;;;2.50;99.90;;;;;;5071028;28;20555;-50
2022/12/23 03:03:48;;;;;;;3.13;2.83;;;2.50;99.90;;;;;;5070619;28;20786;-48
2022/12/23 03:06:21;;;;;;;3.10;2.53;;;2.50;99.90;;;;;;5071282;28;20444;-49
2022/12/23 03:08:52;;;;;;;2.33;2.13;;;2.50;99.90;;;;;;5070188;28;20527;-49
2022/12/23 03:11:19;;;;;;;3.77;3.30;;;2.60;99.90;;;;;;5071105;28;20461;-48
2022/12/23 03:14:09;;;;;;;3.07;2.77;;;2.50;99.90;;;;;;5070693;28;21053;-49
2022/12/23 03:16:48;;;;;;;2.57;2.37;;;2.40;99.90;;;;;;5071088;28;20480;-50
2022/12/23 03:19:23;;;;;;;2.53;2.33;;;2.50;99.90;;;;;;5070921;28;20476;-49
2022/12/23 03:22:07;;;;;;;1.63;1.50;;;2.50;99.90;;;;;;5071064;28;20551;-49
2022/12/23 03:24:40;;;;;;;4.90;4.50;;;2.50;99.90;;;;;;5070301;28;21007;-49
2022/12/23 03:27:11;;;;;;;5.00;4.47;;;2.40;99.90;;;;;;5070790;28;21028;-49
2022/12/23 03:29:44;;;;;;;6.30;4.33;;;2.30;99.90;;;;;;5070952;28;20938;-49
2022/12/23 03:32:13;;;;;;;4.17;3.80;;;2.10;99.90;;;;;;5070447;28;20544;-49
2022/12/23 03:34:45;;;;;;;4.63;3.50;;;2.20;99.90;;;;;;5069593;28;20559;-50
2022/12/23 03:37:15;;;;;;;4.70;4.20;;;2.30;99.90;;;;;;5052924;28;20528;-51
2022/12/23 03:39:48;;;;;;;3.40;3.10;;;2.40;99.90;;;;;;5069517;28;20901;-51
2022/12/23 03:42:19;;;;;;;3.20;2.30;;;2.40;99.90;;;;;;5069356;28;20464;-50
2022/12/23 03:44:49;;;;;;;1.93;1.83;;;2.60;99.90;;;;;;5072514;28;20472;-49
2022/12/23 03:47:21;;;;;;;2.53;2.20;;;2.70;99.90;;;;;;5073210;28;20519;-49
2022/12/23 03:49:54;;;;;;;2.50;1.80;;;2.70;99.90;;;;;;5073714;28;20453;-51
2022/12/23 03:52:25;;;;;;;3.13;2.83;;;2.70;99.90;;;;;;5074933;28;20527;-51
2022/12/23 03:54:54;;;;;;;2.53;2.30;;;2.50;99.90;;;;;;5073442;28;20559;-49
2022/12/23 03:57:26;;;;;;;2.20;1.87;;;2.50;99.90;;;;;;5074239;28;20537;-51
2022/12/23 03:59:53;;;;;;;2.50;2.30;;;2.70;99.90;;;;;;5074488;28;20946;-48
2022/12/23 04:02:27;;;;;;;1.10;0.90;;;2.80;99.90;;;;;;5074570;28;20864;-48
2022/12/23 04:05:17;;;;;;;2.97;2.77;;;2.90;99.90;;;;;;5074014;28;20472;-49
2022/12/23 04:07:49;;;;;;;5.00;4.30;;;2.80;99.90;;;;;;5074156;28;20472;-49
2022/12/23 04:10:16;;;;;;;4.63;4.07;;;2.80;99.90;;;;;;5074216;28;20464;-49
2022/12/23 04:12:44;;;;;;;4.00;3.60;;;2.60;99.90;;;;;;5074531;28;20563;-49
2022/12/23 04:15:11;;;;;;;4.70;4.23;;;2.60;99.90;;;;;;5073841;28;20560;-49
2022/12/23 04:17:38;;;;;;;5.73;4.10;;;2.50;99.90;;;;;;5073556;28;20477;-51
2022/12/23 04:20:08;;;;;;;6.00;4.17;;;2.50;99.90;;;;;;5073724;28;20545;-49
2022/12/23 04:22:35;;;;;;;4.40;4.00;;;2.60;99.90;;;;;;5073922;28;20946;-49
2022/12/23 04:25:02;;;;;;;3.70;3.40;;;2.50;99.90;;;;;;5073012;28;21019;-49
2022/12/23 04:27:29;;;;;;;3.23;2.93;;;2.60;99.90;;;;;;5073707;28;20517;-49
2022/12/23 04:29:56;;;;;;;2.77;2.57;;;2.70;99.90;;;;;;5072940;28;20441;-48
2022/12/23 04:32:23;;;;;;;2.53;2.00;;;2.70;99.90;;;;;;5071953;28;20453;-49
2022/12/23 04:34:50;;;;;;;2.17;1.80;;;2.80;99.90;;;;;;5071982;28;20512;-49
2022/12/23 04:37:18;;;;;;;2.83;1.97;;;3.00;99.90;;;;;;5071435;28;20469;-49
2022/12/23 04:39:45;;;;;;;4.37;3.97;;;3.10;99.90;;;;;;5072391;28;20520;-49
2022/12/23 04:42:12;;;;;;;6.40;5.80;;;2.80;99.90;;;;;;5071965;28;20545;-51
2022/12/23 04:44:38;;;;;;;5.97;5.47;;;2.50;99.90;;;;;;5072117;28;20473;-48
2022/12/23 04:47:05;;;;;;;7.10;4.70;;;2.00;99.90;;;;;;5073430;28;20890;-49
2022/12/23 04:49:32;;;;;;;3.80;3.40;;;2.20;99.90;;;;;;5073660;28;20437;-49
2022/12/23 04:51:59;;;;;;;3.57;1.93;;;2.70;99.90;;;;;;5073107;28;20540;-49
2022/12/23 04:54:28;;;;;;;1.87;1.67;;;3.00;99.90;;;;;;5072808;28;20512;-50
2022/12/23 04:56:55;;;;;;;3.90;2.83;;;3.20;99.90;;;;;;5073195;28;20529;-49
2022/12/23 04:59:22;;;;;;;7.73;5.10;;;3.20;99.90;;;;;;5072908;28;20473;-51
2022/12/23 05:01:49;;;;;;;4.70;4.30;;;3.00;99.90;;;;;;5071391;28;20511;-51
2022/12/23 05:04:16;;;;;;;7.00;5.87;;;3.00;99.90;;;;;;5071517;28;20657;-49
2022/12/23 05:06:43;;;;;;;8.43;6.50;;;2.70;99.90;;;;;;5071802;28;20528;-52
2022/12/23 05:09:10;;;;;;;6.53;5.93;;;2.40;99.90;;;;;;5071721;28;20469;-49
2022/12/23 05:11:38;;;;;;;3.83;3.53;;;2.40;99.90;;;;;;5071138;28;20488;-50
2022/12/23 05:14:05;;;;;;;3.47;3.17;;;2.60;99.90;;;;;;5071001;28;20576;-49
2022/12/23 05:16:32;;;;;;;2.60;2.17;;;2.80;99.90;;;;;;5072690;28;20474;-49
2022/12/23 05:18:59;;;;;;;3.60;2.40;;;3.00;99.90;;;;;;5072829;28;20945;-49
2022/12/23 05:21:26;;;;;;;1.90;1.50;;;3.00;99.90;;;;;;5072657;28;20900;-49
2022/12/23 05:23:53;;;;;;;4.10;1.30;;;3.10;99.90;;;;;;5072885;28;20529;-49
2022/12/23 05:26:20;;;;;;;4.70;4.30;;;3.10;99.90;;;;;;5081858;28;20473;-49
2022/12/23 05:28:48;;;;;;;4.50;4.07;;;2.70;99.90;;;;;;5078435;28;20472;-49
2022/12/23 05:31:16;;;;;;;4.20;3.80;;;2.50;99.90;;;;;;5079916;28;20492;-49
2022/12/23 05:33:43;;;;;;;17.37;10.53;;;2.60;99.90;;;;;;5091500;28;20448;-49
2022/12/23 05:36:11;;;;;;;2.13;2.00;;;2.80;99.90;;;;;;5079439;28;21072;-50
2022/12/23 05:38:38;;;;;;;7.20;6.60;;;3.00;99.90;;;;;;5064479;28;20476;-49
2022/12/23 05:41:05;;;;;;;9.57;8.30;;;3.00;99.90;;;;;;5078155;28;20501;-50
2022/12/23 05:43:32;;;;;;;14.27;13.00;;;2.70;99.90;;;;;;5087125;28;20477;-50
2022/12/23 05:46:01;;;;;;;6.80;6.20;;;2.80;99.90;;;;;;5074591;28;20845;-49
2022/12/23 05:48:27;;;;;;;6.77;5.83;;;3.00;99.90;;;;;;5080997;28;21033;-49
2022/12/23 05:50:54;;;;;;;8.27;7.40;;;3.00;99.90;;;;;;5071392;28;20484;-49
2022/12/23 05:53:23;;;;;;;12.23;11.03;;;2.70;99.90;;;;;;5070451;28;20498;-49
2022/12/23 05:55:50;;;;;;;10.23;7.67;;;2.50;99.90;;;;;;5069996;28;21033;-49
2022/12/23 05:58:17;;;;;;;4.97;4.00;;;2.30;99.90;;;;;;5070818;28;20479;-49
2022/12/23 06:00:44;;;;;;;3.57;3.27;;;2.60;99.90;;;;;;5070262;28;20493;-50
2022/12/23 06:03:12;;;;;;;4.70;4.30;;;2.80;99.90;;;;;;5070317;28;20526;-49
2022/12/23 06:05:42;;;;;;;6.10;5.47;;;2.90;99.90;;;;;;5072488;28;20465;-49
2022/12/23 06:08:09;;;;;;;10.07;9.07;;;2.60;99.90;;;;;;5062009;28;20476;-51
2022/12/23 06:10:36;;;;;;;14.00;10.93;;;2.60;99.90;;;;;;5071439;28;20496;-49
2022/12/23 06:13:03;;;;;;;6.43;5.80;;;2.50;99.90;;;;;;5071817;28;20487;-49
2022/12/23 06:15:30;;;;;;;5.90;5.30;;;2.60;99.90;;;;;;5071391;28;21096;-49
2022/12/23 06:17:57;;;;;;;6.30;5.50;;;2.70;99.90;;;;;;5071484;28;20469;-49
2022/12/23 06:20:25;;;;;;;7.27;6.60;;;2.60;99.90;;;;;;5071966;28;20469;-51
2022/12/23 06:22:52;;;;;;;4.10;3.80;;;2.50;99.90;;;;;;5071967;28;20473;-47
2022/12/23 06:25:19;;;;;;;10.70;8.43;;;2.90;99.90;;;;;;5071796;28;20461;-49
2022/12/23 06:27:45;;;;;;;8.60;4.17;;;3.10;99.90;;;;;;5071559;28;20437;-49
2022/12/23 06:30:13;;;;;;;5.37;4.87;;;3.10;99.90;;;;;;5071533;28;20543;-50
2022/12/23 06:32:40;;;;;;;9.13;6.70;;;3.10;99.90;;;;;;5071794;28;20529;-49
2022/12/23 06:35:08;;;;;;;10.53;7.93;;;2.90;99.90;;;;;;5071407;28;20566;-49
2022/12/23 06:37:36;;;;;;;9.60;8.67;;;2.70;99.90;;;;;;5071470;28;20939;-51
2022/12/23 06:40:04;;;;;;;11.67;10.47;;;2.50;99.90;;;;;;5071200;28;20437;-49
2022/12/23 06:42:31;;;;;;;10.80;8.60;;;2.50;99.90;;;;;;5071437;28;20878;-50
2022/12/23 06:44:58;;;;;;;8.27;7.43;;;2.70;99.90;;;;;;5071043;28;20511;-49
2022/12/23 06:47:25;;;;;;;8.00;5.00;;;3.00;99.90;;;;;;5071274;28;20484;-49
2022/12/23 06:49:51;;;;;;;6.70;6.10;;;2.90;99.90;;;;;;5071643;28;20999;-51
2022/12/23 06:52:18;;;;;;;11.27;7.97;;;3.00;99.90;;;;;;5071476;28;20449;-48
2022/12/23 06:54:47;;;;;;;8.97;8.10;;;2.80;99.90;;;;;;5071142;28;20559;-49
2022/12/23 06:57:14;;;;;;;12.03;8.77;;;2.80;99.90;;;;;;5071363;28;20853;-50
2022/12/23 06:59:40;;;;;;;11.27;10.20;;;3.00;99.90;;;;;;5070628;28;20861;-50
2022/12/23 07:02:10;;;;;;;11.90;10.70;;;3.10;99.90;;;;;;5069619;28;20501;-47
2022/12/23 07:04:36;;;;;;;8.53;7.63;;;3.30;99.90;;;;;;5069832;28;20527;-49
2022/12/23 07:07:03;;;;;;;11.33;10.23;;;3.40;99.90;;;;;;5069756;28;20452;-49
2022/12/23 07:09:30;;;;;;;11.50;10.00;;;3.40;99.90;;;;;;5069847;28;20476;-50
2022/12/23 07:11:59;;;;;;;9.30;8.30;;;3.10;99.90;;;;;;5069439;28;20556;-49
2022/12/23 07:14:25;;;;;;;19.33;17.30;;;3.00;99.90;;;;;;5069653;28;20502;-49
2022/12/23 07:16:52;;;;;;;15.20;13.30;;;2.70;99.90;;;;;;5071160;28;20930;-49
2022/12/23 07:19:19;;;;;;;13.27;11.90;;;2.60;99.90;;;;;;5074412;28;20899;-50
2022/12/23 07:21:46;;;;;;;8.67;7.43;;;2.60;99.90;;;;;;5074946;28;20464;-49
2022/12/23 07:24:13;;;;;;;5.30;4.80;;;3.00;99.90;;;;;;5074799;28;21038;-49
2022/12/23 07:26:40;;;;;;;17.23;13.20;;;3.30;99.90;;;;;;5074327;28;20884;-49
2022/12/23 07:29:09;;;;;;;13.77;11.93;;;2.90;99.90;;;;;;5074012;28;20442;-49
2022/12/23 07:31:35;;;;;;;14.50;12.43;;;2.80;99.90;;;;;;5080559;28;20490;-50
2022/12/23 07:34:02;;;;;;;17.47;11.73;;;3.00;99.90;;;;;;5082934;28;20524;-49
2022/12/23 07:36:29;;;;;;;16.70;10.93;;;2.90;99.90;;;;;;5082376;28;20563;-49
2022/12/23 07:38:56;;;;;;;16.77;11.93;;;2.70;99.90;;;;;;5078692;28;20443;-49
2022/12/23 07:41:23;;;;;;;11.17;9.50;;;2.70;99.90;;;;;;5082775;28;20503;-50
2022/12/23 07:43:50;;;;;;;9.30;8.23;;;2.80;99.90;;;;;;5083944;28;20940;-49
2022/12/23 07:46:18;;;;;;;15.90;13.73;;;3.10;99.90;;;;;;5085691;28;20511;-51
2022/12/23 07:48:45;;;;;;;17.90;14.60;;;2.90;99.90;;;;;;5084075;28;20892;-50
2022/12/23 07:51:12;;;;;;;22.60;15.83;;;2.80;99.90;;;;;;5083605;28;20539;-49
2022/12/23 07:53:39;;;;;;;26.03;16.97;;;2.70;99.90;;;;;;5085439;28;20463;-49
2022/12/23 07:56:06;;;;;;;18.23;13.60;;;2.60;99.90;;;;;;5083819;28;20510;-49
2022/12/23 07:58:33;;;;;;;16.03;14.33;;;2.70;99.90;;;;;;5083998;28;20511;-49
2022/12/23 08:01:02;;;;;;;21.00;15.53;;;2.70;99.90;;;;;;5085224;28;20531;-49
2022/12/23 08:03:30;;;;;;;35.60;17.33;;;2.70;99.90;;;;;;5083908;28;20440;-50
2022/12/23 08:06:04;;;;;;;21.67;13.83;;;2.70;99.90;;;;;;5076933;28;20533;-49
2022/12/23 08:08:31;;;;;;;16.90;14.30;;;2.70;99.90;;;;;;5074111;28;20880;-49
2022/12/23 08:11:00;;;;;;;21.10;16.07;;;2.70;99.90;;;;;;5074324;28;20464;-49
2022/12/23 08:13:27;;;;;;;14.60;12.40;;;2.80;99.90;;;;;;5074181;28;20449;-52
2022/12/23 08:15:55;;;;;;;14.73;13.00;;;2.80;99.90;;;;;;5073922;28;20932;-49
2022/12/23 08:18:22;;;;;;;14.93;13.33;;;2.90;99.90;;;;;;5074038;28;20956;-49
2022/12/23 08:20:55;;;;;;;11.03;9.93;;;3.00;99.90;;;;;;5074139;28;20562;-51
2022/12/23 08:23:22;;;;;;;10.67;9.57;;;3.00;99.90;;;;;;5072741;28;20578;-49
2022/12/23 08:25:49;;;;;;;12.73;10.57;;;3.20;99.90;;;;;;5072982;28;20961;-52
2022/12/23 08:28:16;;;;;;;13.13;11.40;;;3.20;99.90;;;;;;5092357;28;20532;-49
2022/12/23 08:30:43;;;;;;;15.90;13.33;;;3.30;99.90;;;;;;5091934;28;20491;-50
2022/12/23 08:33:10;;;;;;;30.77;22.13;;;3.20;99.90;;;;;;5086382;28;20513;-49
2022/12/23 08:35:37;;;;;;;25.67;22.23;;;3.10;99.90;;;;;;5083226;28;21076;-50
2022/12/23 08:38:05;;;;;;;21.93;19.70;;;3.00;99.90;;;;;;5090328;28;20888;-52
2022/12/23 08:40:32;;;;;;;39.63;23.47;;;2.90;99.90;;;;;;5095226;28;20560;-52
2022/12/23 08:42:59;;;;;;;121.03;31.67;;;2.70;99.90;;;;;;5092966;28;20468;-49
2022/12/23 08:45:26;;;;;;;27.10;21.30;;;2.60;99.90;;;;;;5072063;28;20532;-51
2022/12/23 08:47:53;;;;;;;42.70;21.37;;;2.60;99.90;;;;;;5070458;28;21001;-50
2022/12/23 08:50:20;;;;;;;41.93;25.20;;;2.80;99.90;;;;;;5070433;28;20465;-49
2022/12/23 08:52:46;;;;;;;53.10;26.60;;;2.70;99.90;;;;;;5078506;28;20529;-50
2022/12/23 08:55:15;;;;;;;78.67;60.60;;;2.70;99.90;;;;;;5080596;28;20470;-51
2022/12/23 08:57:42;;;;;;;66.07;54.10;;;2.80;99.90;;;;;;5051180;28;20512;-49
2022/12/23 09:00:10;;;;;;;109.73;31.17;;;3.00;99.90;;;;;;5050656;28;20523;-50
2022/12/23 09:02:37;;;;;;;175.20;31.83;;;3.00;99.90;;;;;;5058585;28;20443;-50
2022/12/23 09:05:04;;;;;;;38.93;25.40;;;2.90;99.90;;;;;;5070174;28;20926;-51
2022/12/23 09:07:32;;;;;;;28.97;22.80;;;2.90;99.90;;;;;;5070277;28;20475;-50
2022/12/23 09:09:58;;;;;;;82.97;25.97;;;3.10;99.90;;;;;;5069936;28;20441;-49
2022/12/23 09:12:27;;;;;;;171.63;29.10;;;2.90;99.90;;;;;;5070242;28;20473;-51
2022/12/23 09:14:54;;;;;;;110.97;18.90;;;3.00;99.90;;;;;;5078083;28;20901;-50
2022/12/23 09:17:20;;;;;;;21.50;17.80;;;3.30;99.90;;;;;;5084318;28;20511;-52
2022/12/23 09:19:48;;;;;;;40.93;29.30;;;3.40;99.90;;;;;;5089991;28;21049;-51
2022/12/23 09:22:14;;;;;;;42.37;14.23;;;3.40;99.90;;;;;;5089116;28;20478;-50
2022/12/23 09:24:41;;;;;;;179.20;48.33;;;3.40;99.90;;;;;;5089406;28;20483;-50
2022/12/23 09:27:08;;;;;;;207.93;39.63;;;3.30;99.90;;;;;;5089672;28;20531;-49
2022/12/23 09:29:36;;;;;;;122.50;28.37;;;2.90;99.90;;;;;;5089064;28;21013;-52
2022/12/23 09:32:03;;;;;;;53.43;20.90;;;2.80;99.90;;;;;;5089446;28;20492;-52
2022/12/23 09:34:30;;;;;;;21.87;16.67;;;2.90;99.90;;;;;;5089081;28;20471;-50
2022/12/23 09:36:57;;;;;;;45.70;27.60;;;3.00;99.90;;;;;;5089089;28;21052;-50
2022/12/23 09:39:24;;;;;;;150.17;37.03;;;3.10;99.90;;;;;;5089851;28;20530;-50
2022/12/23 09:42:07;;;;;;;181.23;34.77;;;3.00;99.90;;;;;;5088844;28;20567;-49
2022/12/23 09:44:46;;;;;;;130.23;29.30;;;2.70;99.90;;;;;;5087969;28;20539;-50
2022/12/23 09:47:17;;;;;;;56.67;34.37;;;2.70;99.90;;;;;;5076018;28;20432;-49
2022/12/23 09:49:49;;;;;;;136.30;32.47;;;3.00;99.90;;;;;;5089849;28;20536;-49
2022/12/23 09:52:22;;;;;;;61.00;28.33;;;2.70;99.90;;;;;;5089685;28;20544;-50
2022/12/23 09:54:52;;;;;;;40.73;28.10;;;2.80;99.90;;;;;;5089238;28;20522;-50
2022/12/23 09:57:23;;;;;;;129.63;31.27;;;3.00;99.90;;;;;;5089109;28;20560;-52
2022/12/23 10:00:04;;;;;;;215.00;31.33;;;3.00;99.90;;;;;;5089472;28;20475;-50
2022/12/23 10:02:42;;;;;;;25.30;17.50;;;3.10;99.90;;;;;;5089501;28;20497;-50
2022/12/23 10:05:29;;;;;;;65.07;19.40;;;3.20;99.90;;;;;;5089035;28;20963;-51
2022/12/23 10:08:03;;;;;;;16.33;11.93;;;3.30;99.90;;;;;;5089487;28;21017;-50
2022/12/23 10:10:35;;;;;;;13.33;11.93;;;3.50;99.90;;;;;;5089296;28;20542;-49
2022/12/23 10:13:05;;;;;;;16.17;13.63;;;3.60;99.90;;;;;;5089128;28;20532;-51
2022/12/23 10:15:37;;;;;;;43.77;22.03;;;3.70;99.90;;;;;;5079525;28;20454;-51
2022/12/23 10:18:15;;;;;;;49.33;24.30;;;3.50;99.90;;;;;;5049305;28;20578;-52
2022/12/23 10:20:51;;;;;;;165.30;33.53;;;3.50;99.90;;;;;;5049307;28;20560;-50
2022/12/23 10:23:25;;;;;;;36.50;22.10;;;2.90;99.90;;;;;;5047844;28;20445;-49
2022/12/23 10:25:53;;;;;;;52.73;25.27;;;3.00;99.90;;;;;;5047502;28;20438;-50
2022/12/23 10:28:19;;;;;;;93.63;31.87;;;3.20;99.90;;;;;;5047311;28;20487;-49
2022/12/23 10:31:00;;;;;;;42.47;24.57;;;2.90;99.90;;;;;;5047713;28;20540;-50
2022/12/23 10:33:36;;;;;;;31.40;21.87;;;3.10;99.90;;;;;;5047388;28;20542;-53
2022/12/23 10:36:09;;;;;;;19.23;15.67;;;3.40;99.90;;;;;;5047610;28;20569;-50
2022/12/23 10:38:51;;;;;;;56.70;22.03;;;3.60;99.90;;;;;;5048697;28;20455;-50
2022/12/23 10:41:28;;;;;;;74.87;28.10;;;3.50;99.90;;;;;;5049089;28;20500;-51
2022/12/23 10:44:22;;;;;;;69.33;27.77;;;3.30;99.90;;;;;;5055400;28;20461;-52
2022/12/23 10:46:58;;;;;;;44.43;25.50;;;3.10;99.90;;;;;;5080439;28;20458;-50
2022/12/23 10:49:37;;;;;;;39.47;24.60;;;3.30;99.90;;;;;;5088955;28;20971;-51
2022/12/23 10:52:10;;;;;;;67.97;27.20;;;3.50;99.90;;;;;;5087758;28;20465;-52
2022/12/23 10:54:38;;;;;;;40.70;26.43;;;3.60;99.90;;;;;;5087346;28;20528;-50
2022/12/23 10:57:06;;;;;;;77.97;26.50;;;3.60;99.90;;;;;;5087717;28;21020;-50
2022/12/23 10:59:35;;;;;;;38.83;22.40;;;3.40;99.90;;;;;;5087905;28;20441;-52
2022/12/23 11:02:23;;;;;;;46.20;17.70;;;3.60;99.90;;;;;;5088770;28;20464;-49
2022/12/23 11:04:50;;;;;;;58.00;17.80;;;3.70;99.90;;;;;;5087709;28;20444;-50
2022/12/23 11:07:21;;;;;;;33.37;19.63;;;3.90;99.90;;;;;;5087752;28;20506;-51
2022/12/23 11:09:51;;;;;;;55.10;31.03;;;3.90;99.90;;;;;;5069557;28;20827;-51
2022/12/23 11:12:24;;;;;;;34.17;24.67;;;3.70;99.90;;;;;;5067548;28;20450;-51
2022/12/23 11:14:53;;;;;;;47.03;25.57;;;3.80;99.90;;;;;;5075289;28;20450;-50
2022/12/23 11:17:23;;;;;;;58.37;23.40;;;3.80;99.90;;;;;;5068040;28;20527;-50
2022/12/23 11:20:14;;;;;;;137.27;27.10;;;3.50;99.90;;;;;;5073821;28;20447;-51
2022/12/23 11:22:49;;;;;;;151.33;28.10;;;3.50;99.90;;;;;;5069095;28;20453;-52
2022/12/23 11:25:28;;;;;;;33.20;19.90;;;3.60;99.90;;;;;;5067736;28;20464;-50
2022/12/23 11:27:58;;;;;;;26.20;16.70;;;3.80;99.90;;;;;;5066513;28;20502;-50
2022/12/23 11:30:25;;;;;;;70.20;24.10;;;3.90;99.90;;;;;;5064976;28;20532;-50
2022/12/23 11:32:54;;;;;;;152.27;26.00;;;3.80;99.90;;;;;;5067615;28;20444;-48
2022/12/23 11:35:26;;;;;;;75.00;20.00;;;3.70;99.90;;;;;;5067472;28;20476;-50
2022/12/23 11:37:53;;;;;;;48.93;18.97;;;3.90;99.90;;;;;;5067546;28;20508;-50
2022/12/23 11:40:26;;;;;;;74.23;16.00;;;4.00;99.90;;;;;;5067316;28;20492;-51
2022/12/23 11:42:57;;;;;;;34.27;13.40;;;4.10;99.90;;;;;;5067120;28;20526;-49
2022/12/23 11:45:26;;;;;;;17.80;13.90;;;4.10;99.90;;;;;;5068002;28;20440;-51
2022/12/23 11:47:55;;;;;;;18.53;13.57;;;4.10;99.90;;;;;;5067297;28;20596;-50
2022/12/23 11:50:34;;;;;;;21.07;15.40;;;4.10;99.90;;;;;;5067111;28;20457;-50
2022/12/23 11:53:09;;;;;;;63.27;20.47;;;4.00;99.90;;;;;;5067525;28;20470;-50
2022/12/23 11:55:39;;;;;;;97.90;25.43;;;4.00;99.90;;;;;;5066382;28;20457;-51
2022/12/23 11:58:18;;;;;;;39.23;17.07;;;3.90;99.90;;;;;;5067049;28;20512;-53
2022/12/23 12:00:53;;;;;;;25.40;18.73;;;4.10;99.90;;;;;;5067668;28;20550;-50
2022/12/23 12:03:25;;;;;;;20.67;14.80;;;4.20;99.90;;;;;;5067732;28;20445;-50
2022/12/23 12:05:57;;;;;;;33.47;23.47;;;4.20;99.90;;;;;;5071254;28;20892;-50
2022/12/23 12:08:28;;;;;;;21.03;16.87;;;4.10;99.90;;;;;;5071556;28;20450;-50
2022/12/23 12:11:02;;;;;;;17.40;14.17;;;4.20;99.90;;;;;;5071378;28;21048;-50
2022/12/23 12:13:32;;;;;;;30.40;21.73;;;4.30;99.90;;;;;;5071154;28;20532;-51
2022/12/23 12:16:16;;;;;;;26.53;21.40;;;4.30;99.90;;;;;;5080905;28;20452;-50
2022/12/23 12:18:46;;;;;;;24.67;19.50;;;4.30;99.90;;;;;;5090044;28;20488;-52
2022/12/23 12:21:17;;;;;;;25.90;21.70;;;4.30;99.90;;;;;;5089840;28;20552;-52
2022/12/23 12:23:46;;;;;;;27.37;20.03;;;4.30;99.90;;;;;;5089711;28;20882;-50
2022/12/23 12:26:20;;;;;;;20.37;17.00;;;4.20;99.90;;;;;;5089834;28;20502;-50
2022/12/23 12:28:52;;;;;;;25.00;18.30;;;4.30;99.90;;;;;;5090122;28;20521;-50
2022/12/23 12:31:24;;;;;;;20.40;16.63;;;4.30;99.90;;;;;;5090759;28;20487;-50
2022/12/23 12:33:57;;;;;;;20.93;15.27;;;4.40;99.90;;;;;;5091134;28;20540;-52
2022/12/23 12:36:37;;;;;;;15.90;12.80;;;4.50;99.90;;;;;;5089809;28;20523;-50
2022/12/23 12:39:04;;;;;;;23.90;17.87;;;4.50;99.90;;;;;;5080997;28;20508;-50
2022/12/23 12:41:37;;;;;;;26.47;18.27;;;4.50;99.90;;;;;;5070459;28;20474;-52
2022/12/23 12:44:18;;;;;;;28.47;20.37;;;4.50;99.90;;;;;;5074055;28;20469;-51
2022/12/23 12:46:50;;;;;;;31.83;21.43;;;4.10;99.90;;;;;;5082400;28;20438;-49
2022/12/23 12:49:26;;;;;;;23.60;20.93;;;4.20;99.90;;;;;;5090884;28;21041;-52
2022/12/23 12:52:00;;;;;;;29.60;22.47;;;4.20;99.90;;;;;;5090831;28;20540;-50
2022/12/23 12:54:33;;;;;;;23.47;19.43;;;4.30;99.90;;;;;;5090710;28;20506;-50
2022/12/23 12:57:01;;;;;;;23.93;18.60;;;4.40;99.90;;;;;;5083251;28;20562;-51
2022/12/23 12:59:31;;;;;;;25.57;18.93;;;4.30;99.90;;;;;;5070594;28;20442;-50
2022/12/23 13:02:25;;;;;;;25.77;18.80;;;4.30;99.90;;;;;;5070948;28;20564;-50
2022/12/23 13:05:15;;;;;;;20.70;16.90;;;4.50;99.90;;;;;;5062546;28;20532;-50
2022/12/23 13:07:56;;;;;;;14.40;12.67;;;4.40;99.90;;;;;;5069841;28;20527;-50
2022/12/23 13:10:34;;;;;;;20.27;17.17;;;4.50;99.90;;;;;;5070460;28;20524;-52
2022/12/23 13:13:09;;;;;;;35.57;24.37;;;4.60;99.90;;;;;;5070206;28;20480;-50
2022/12/23 13:15:46;;;;;;;24.63;21.93;;;4.70;99.90;;;;;;5078248;28;20554;-52
2022/12/23 13:18:27;;;;;;;28.60;22.80;;;4.70;99.90;;;;;;5049542;28;20482;-51
2022/12/23 13:21:01;;;;;;;28.93;21.70;;;4.60;99.90;;;;;;5049015;28;20870;-51
2022/12/23 13:23:35;;;;;;;30.20;22.43;;;4.60;99.90;;;;;;5048672;28;20739;-48
2022/12/23 13:26:09;;;;;;;29.07;22.03;;;4.60;99.90;;;;;;5049148;28;20537;-48
2022/12/23 13:28:43;;;;;;;22.90;19.53;;;4.60;99.90;;;;;;5048706;28;20482;-49
2022/12/23 13:31:18;;;;;;;23.17;20.33;;;4.50;99.90;;;;;;5060927;28;20502;-48